createdAt,value
2022-10-13T00:19:09.747Z,229
2022-10-13T00:39:07.504Z,236
2022-10-13T00:59:07.679Z,230
2022-10-13T01:19:07.691Z,230
2022-10-13T01:39:07.645Z,238
2022-10-13T01:59:07.431Z,230
2022-10-13T02:19:07.600Z,230
2022-10-13T02:39:07.654Z,231
2022-10-13T02:59:07.556Z,232
2022-10-13T03:19:07.558Z,228
2022-10-13T03:39:07.528Z,223
2022-10-13T03:59:07.509Z,232
2022-10-13T04:19:07.471Z,227
2022-10-13T04:39:07.485Z,233
2022-10-13T04:59:07.447Z,226
2022-10-13T05:19:07.411Z,221
2022-10-13T05:39:07.402Z,223
2022-10-13T05:59:07.385Z,229
2022-10-13T06:19:07.348Z,225
2022-10-13T06:39:07.344Z,234
2022-10-13T06:59:07.316Z,237
2022-10-13T07:39:07.277Z,227
2022-10-13T07:59:07.247Z,240
2022-10-13T08:19:07.259Z,240
2022-10-13T08:39:07.213Z,235
2022-10-13T08:59:07.165Z,229
2022-10-13T09:19:07.146Z,233
2022-10-13T09:39:07.130Z,230
2022-10-13T09:59:07.092Z,233
2022-10-13T10:19:06.560Z,240
2022-10-13T10:39:07.047Z,232
2022-10-13T10:59:07.052Z,229
2022-10-13T11:19:06.996Z,223
2022-10-13T11:39:06.952Z,228
2022-10-13T11:59:06.928Z,223
2022-10-13T12:19:06.906Z,235
2022-10-13T12:39:06.870Z,240
2022-10-13T12:59:06.839Z,214
2022-10-13T13:19:06.832Z,232
2022-10-13T13:59:06.263Z,232
2022-10-13T14:19:06.741Z,243
2022-10-13T14:39:06.225Z,236
2022-10-13T14:59:06.683Z,236
2022-10-13T15:19:06.173Z,226
2022-10-13T15:39:06.631Z,225
2022-10-13T16:19:06.581Z,239
2022-10-13T16:39:06.557Z,242
2022-10-13T16:59:06.533Z,232
2022-10-13T17:19:06.502Z,233
2022-10-13T17:39:06.496Z,229
2022-10-13T18:19:06.429Z,241
2022-10-13T18:39:06.403Z,237
2022-10-13T18:59:06.394Z,267
2022-10-13T19:19:06.370Z,273
2022-10-13T19:39:06.341Z,261
2022-10-13T20:19:06.772Z,263
2022-10-13T20:39:06.264Z,247
2022-10-13T20:59:05.747Z,250
2022-10-13T21:19:06.198Z,254
2022-10-13T21:39:06.009Z,256
2022-10-13T21:59:06.170Z,251
2022-10-13T22:19:06.129Z,245
2022-10-13T22:39:06.123Z,255
2022-10-13T22:59:06.089Z,252
2022-10-13T23:19:06.068Z,255
2022-10-13T23:39:12.569Z,249
2022-10-13T23:59:06.004Z,236
